createdAt,value
2019-01-25T00:00:18.780Z,0
2019-01-25T00:01:18.788Z,0
2019-01-25T00:02:18.801Z,0
2019-01-25T00:03:18.917Z,0
2019-01-25T00:04:18.573Z,0
2019-01-25T00:05:18.831Z,0
2019-01-25T00:06:18.850Z,0
2019-01-25T00:07:18.859Z,0
2019-01-25T00:08:33.520Z,0
2019-01-25T00:09:18.870Z,0
2019-01-25T00:11:18.893Z,0
2019-01-25T00:12:18.898Z,0
2019-01-25T00:13:18.907Z,0
2019-01-25T00:14:18.922Z,0
2019-01-25T00:15:18.924Z,0
2019-01-25T00:16:18.935Z,0
2019-01-25T00:17:19.237Z,0
2019-01-25T00:18:18.972Z,0
2019-01-25T00:19:18.965Z,0
2019-01-25T00:20:19.058Z,0
2019-01-25T00:21:18.984Z,0
2019-01-25T00:22:18.757Z,0
2019-01-25T00:23:33.668Z,0
2019-01-25T00:24:19.019Z,0
2019-01-25T00:25:19.028Z,0
2019-01-25T00:26:19.041Z,0
2019-01-25T00:27:19.049Z,0
2019-01-25T00:28:19.061Z,0
2019-01-25T00:29:19.120Z,0
2019-01-25T00:30:19.090Z,0
2019-01-25T00:31:19.086Z,0
2019-01-25T00:32:19.091Z,0
2019-01-25T00:33:19.104Z,0
2019-01-25T00:34:19.119Z,0
2019-01-25T00:35:19.127Z,0
2019-01-25T00:36:19.279Z,0
2019-01-25T00:37:19.192Z,0
2019-01-25T00:38:19.161Z,0
2019-01-25T00:39:19.162Z,0
2019-01-25T00:40:19.172Z,0
2019-01-25T00:41:19.185Z,0
2019-01-25T00:42:19.193Z,0
2019-01-25T00:43:19.255Z,0
2019-01-25T00:44:19.212Z,0
2019-01-25T00:45:19.223Z,0
2019-01-25T00:46:19.240Z,0
2019-01-25T00:47:19.296Z,0
2019-01-25T00:48:19.253Z,0
2019-01-25T00:49:19.262Z,0
2019-01-25T00:50:33.932Z,0
2019-01-25T00:51:33.943Z,0
2019-01-25T00:53:19.317Z,0
2019-01-25T00:54:19.314Z,0
2019-01-25T00:55:33.982Z,0
2019-01-25T00:56:19.328Z,0
2019-01-25T00:57:19.340Z,0
2019-01-25T00:58:33.764Z,0
2019-01-25T00:59:19.361Z,0
2019-01-25T01:00:19.370Z,0
2019-01-25T01:01:34.045Z,0
2019-01-25T01:02:19.391Z,0
2019-01-25T01:03:19.400Z,0
2019-01-25T01:04:19.408Z,0
2019-01-25T01:05:19.529Z,0
2019-01-25T01:06:34.091Z,0
2019-01-25T01:07:19.440Z,0
2019-01-25T01:08:19.446Z,0
2019-01-25T01:10:36.076Z,0
2019-01-25T01:11:34.141Z,0
2019-01-25T01:12:19.486Z,0
2019-01-25T01:13:19.596Z,0
2019-01-25T01:14:19.507Z,0
2019-01-25T01:15:19.525Z,0
2019-01-25T01:16:19.526Z,0
2019-01-25T01:17:19.630Z,0
2019-01-25T01:18:19.555Z,0
2019-01-25T01:19:19.560Z,0
2019-01-25T01:20:19.568Z,0
2019-01-25T01:21:19.613Z,0
2019-01-25T01:22:19.614Z,0
2019-01-25T01:24:19.657Z,0
2019-01-25T01:25:19.662Z,0
2019-01-25T01:26:19.625Z,0
2019-01-25T01:27:34.355Z,0
2019-01-25T01:28:19.652Z,0
2019-01-25T01:29:19.656Z,0
2019-01-25T01:30:19.677Z,0
2019-01-25T01:31:19.676Z,0
2019-01-25T01:32:19.684Z,0
2019-01-25T01:33:34.359Z,0
2019-01-25T01:34:19.705Z,0
2019-01-25T01:35:19.732Z,0
2019-01-25T01:36:34.393Z,0
2019-01-25T01:37:19.735Z,0
2019-01-25T01:38:19.769Z,0
2019-01-25T01:39:19.755Z,0
2019-01-25T01:40:26.460Z,0
2019-01-25T01:41:19.776Z,0
2019-01-25T01:42:19.780Z,0
2019-01-25T01:43:34.462Z,0
2019-01-25T01:44:19.799Z,0
2019-01-25T01:45:34.531Z,0
2019-01-25T01:46:19.821Z,0
2019-01-25T01:47:19.868Z,0
2019-01-25T01:48:19.603Z,0
2019-01-25T01:49:19.853Z,0
2019-01-25T01:50:34.526Z,0
2019-01-25T01:51:19.881Z,0
2019-01-25T01:52:34.543Z,0
2019-01-25T01:53:34.558Z,0
2019-01-25T01:54:19.902Z,0
2019-01-25T01:55:19.912Z,0
2019-01-25T01:57:19.936Z,0
2019-01-25T01:58:34.622Z,0
2019-01-25T01:59:19.952Z,0
2019-01-25T02:00:19.963Z,0
2019-01-25T02:01:19.969Z,0
2019-01-25T02:02:19.981Z,0
2019-01-25T02:03:20.001Z,0
2019-01-25T02:04:20.005Z,0
2019-01-25T02:05:20.009Z,0
2019-01-25T02:06:20.027Z,0
2019-01-25T02:08:34.704Z,0
2019-01-25T02:09:20.048Z,0
2019-01-25T02:10:34.736Z,0
2019-01-25T02:11:20.067Z,0
2019-01-25T02:12:34.740Z,0
2019-01-25T02:13:20.088Z,0
2019-01-25T02:14:20.097Z,0
2019-01-25T02:15:20.108Z,0
2019-01-25T02:16:20.118Z,0
2019-01-25T02:17:20.129Z,0
2019-01-25T02:18:20.141Z,0
2019-01-25T02:19:20.166Z,0
2019-01-25T02:20:20.160Z,0
2019-01-25T02:21:20.165Z,0
2019-01-25T02:22:20.182Z,0
2019-01-25T02:23:20.193Z,0
2019-01-25T02:24:20.196Z,0
2019-01-25T02:25:34.874Z,0
2019-01-25T02:26:20.221Z,0
2019-01-25T02:27:20.390Z,0
2019-01-25T02:28:20.245Z,0
2019-01-25T02:29:20.276Z,0
2019-01-25T02:30:35.025Z,0
2019-01-25T02:31:20.024Z,0
2019-01-25T02:32:20.282Z,0
2019-01-25T02:33:20.300Z,0
2019-01-25T02:34:20.298Z,0
2019-01-25T02:35:20.314Z,0
2019-01-25T02:36:20.322Z,0
2019-01-25T02:37:20.331Z,0
2019-01-25T02:39:20.359Z,0
2019-01-25T02:40:41.328Z,0
2019-01-25T02:41:20.375Z,0
2019-01-25T02:43:20.457Z,0
2019-01-25T02:44:20.397Z,0
2019-01-25T02:46:35.082Z,0
2019-01-25T02:47:20.428Z,0
2019-01-25T02:48:20.436Z,0
2019-01-25T02:49:35.130Z,0
2019-01-25T02:50:20.525Z,0
2019-01-25T02:51:20.463Z,0
2019-01-25T02:52:20.475Z,0
2019-01-25T02:53:20.496Z,0
2019-01-25T02:54:20.501Z,0
2019-01-25T02:55:35.355Z,0
2019-01-25T02:56:20.518Z,0
2019-01-25T02:57:35.201Z,0
2019-01-25T02:59:35.214Z,0
2019-01-25T03:00:20.580Z,0
2019-01-25T03:01:20.580Z,0
2019-01-25T03:02:35.247Z,0
2019-01-25T03:03:20.583Z,0
2019-01-25T03:04:20.595Z,0
2019-01-25T03:05:20.662Z,0
2019-01-25T03:06:20.614Z,0
2019-01-25T03:07:20.625Z,0
2019-01-25T03:08:20.790Z,0
2019-01-25T03:09:20.646Z,0
2019-01-25T03:11:20.672Z,0
2019-01-25T03:12:35.333Z,0
2019-01-25T03:13:35.358Z,0
2019-01-25T03:15:20.714Z,0
2019-01-25T03:17:20.725Z,0
2019-01-25T03:18:35.443Z,0
2019-01-25T03:19:20.739Z,0
2019-01-25T03:20:20.761Z,0
2019-01-25T03:21:20.829Z,0
2019-01-25T03:22:20.780Z,0
2019-01-25T03:23:20.790Z,0
2019-01-25T03:24:35.469Z,0
2019-01-25T03:25:20.556Z,0
2019-01-25T03:26:20.832Z,0
2019-01-25T03:27:20.820Z,0
2019-01-25T03:28:20.832Z,0
2019-01-25T03:29:20.843Z,0
2019-01-25T03:30:20.899Z,0
2019-01-25T03:31:20.873Z,0
2019-01-25T03:32:20.904Z,0
2019-01-25T03:33:35.547Z,0
2019-01-25T03:34:20.658Z,0
2019-01-25T03:35:20.918Z,0
2019-01-25T03:37:20.930Z,0
2019-01-25T03:39:20.942Z,0
2019-01-25T03:40:35.613Z,0
2019-01-25T03:41:35.623Z,0
2019-01-25T03:42:20.972Z,0
2019-01-25T03:43:20.997Z,0
2019-01-25T03:44:20.987Z,0
2019-01-25T03:45:35.661Z,0
2019-01-25T03:46:21.010Z,0
2019-01-25T03:47:21.028Z,0
2019-01-25T03:49:21.039Z,0
2019-01-25T03:50:35.718Z,0
2019-01-25T03:51:21.062Z,0
2019-01-25T03:52:21.110Z,0
2019-01-25T03:53:21.089Z,0
2019-01-25T03:54:21.138Z,0
2019-01-25T03:55:21.103Z,0
2019-01-25T03:56:21.109Z,0
2019-01-25T03:57:35.778Z,0
2019-01-25T03:59:21.154Z,0
2019-01-25T04:00:21.143Z,0
2019-01-25T04:01:21.156Z,0
2019-01-25T04:02:35.828Z,0
2019-01-25T04:03:21.346Z,0
2019-01-25T04:04:21.186Z,0
2019-01-25T04:05:35.860Z,0
2019-01-25T04:06:21.210Z,0
2019-01-25T04:07:21.226Z,0
2019-01-25T04:08:21.285Z,0
2019-01-25T04:09:35.949Z,0
2019-01-25T04:10:35.914Z,0
2019-01-25T04:11:35.918Z,0
2019-01-25T04:12:21.269Z,0
2019-01-25T04:14:35.944Z,0
2019-01-25T04:15:21.294Z,0
2019-01-25T04:16:35.962Z,0
2019-01-25T04:17:21.327Z,0
2019-01-25T04:18:21.331Z,0
2019-01-25T04:20:21.355Z,0
2019-01-25T04:21:36.020Z,0
2019-01-25T04:22:21.124Z,0
2019-01-25T04:23:21.375Z,0
2019-01-25T04:24:21.438Z,0
2019-01-25T04:25:21.403Z,0
2019-01-25T04:26:21.403Z,0
2019-01-25T04:27:21.417Z,0
2019-01-25T04:28:21.427Z,0
2019-01-25T04:29:21.481Z,0
2019-01-25T04:30:21.444Z,0
2019-01-25T04:31:36.114Z,0
2019-01-25T04:32:35.889Z,0
2019-01-25T04:33:21.492Z,0
2019-01-25T04:34:21.494Z,0
2019-01-25T04:35:21.491Z,0
2019-01-25T04:36:21.509Z,0
2019-01-25T04:37:36.226Z,0
2019-01-25T04:38:21.523Z,0
2019-01-25T04:39:21.584Z,0
2019-01-25T04:40:21.592Z,0
2019-01-25T04:41:21.566Z,0
2019-01-25T04:42:36.227Z,0
2019-01-25T04:43:21.571Z,0
2019-01-25T04:44:21.582Z,0
2019-01-25T04:45:21.597Z,0
2019-01-25T04:46:21.711Z,0
2019-01-25T04:47:36.270Z,0
2019-01-25T04:48:21.622Z,0
2019-01-25T04:49:21.692Z,0
2019-01-25T04:50:21.814Z,0
2019-01-25T04:51:21.650Z,0
2019-01-25T04:52:21.671Z,0
2019-01-25T04:53:36.338Z,0
2019-01-25T04:54:21.681Z,0
2019-01-25T04:55:21.719Z,0
2019-01-25T04:56:21.757Z,0
2019-01-25T04:57:21.730Z,0
2019-01-25T04:58:21.796Z,0
2019-01-25T04:59:21.743Z,0
2019-01-25T05:00:21.745Z,0
2019-01-25T05:01:21.752Z,0
2019-01-25T05:02:21.827Z,0
2019-01-25T05:03:21.774Z,0
2019-01-25T05:04:21.796Z,0
2019-01-25T05:05:21.791Z,0
2019-01-25T05:07:21.816Z,0
2019-01-25T05:08:36.482Z,0
2019-01-25T05:09:21.836Z,0
2019-01-25T05:10:21.858Z,0
2019-01-25T05:13:21.876Z,0
2019-01-25T05:14:21.907Z,0
2019-01-25T05:15:21.895Z,0
2019-01-25T05:16:22.010Z,0
2019-01-25T05:17:21.957Z,0
2019-01-25T05:18:22.019Z,0
2019-01-25T05:19:21.934Z,0
2019-01-25T05:20:21.952Z,0
2019-01-25T05:22:21.981Z,0
2019-01-25T05:23:21.991Z,0
2019-01-25T05:24:21.986Z,0
2019-01-25T05:25:22.041Z,0
2019-01-25T05:26:22.017Z,0
2019-01-25T05:27:22.026Z,0
2019-01-25T05:28:22.028Z,0
2019-01-25T05:29:22.038Z,0
2019-01-25T05:30:22.097Z,0
2019-01-25T05:31:36.714Z,0
2019-01-25T05:32:22.063Z,0
2019-01-25T05:33:22.077Z,0
2019-01-25T05:34:22.082Z,0
2019-01-25T05:35:22.092Z,0
2019-01-25T05:36:22.102Z,0
2019-01-25T05:37:22.153Z,0
2019-01-25T05:38:22.122Z,0
2019-01-25T05:39:22.130Z,0
2019-01-25T05:40:36.808Z,0
2019-01-25T05:41:30.610Z,0
2019-01-25T05:42:22.165Z,0
2019-01-25T05:43:22.185Z,0
2019-01-25T05:44:22.195Z,0
2019-01-25T05:45:36.907Z,0
2019-01-25T05:46:22.210Z,0
2019-01-25T05:47:22.214Z,0
2019-01-25T05:48:22.221Z,0
2019-01-25T05:49:22.238Z,0
2019-01-25T05:50:22.246Z,0
2019-01-25T05:51:22.252Z,0
2019-01-25T05:52:36.922Z,0
2019-01-25T05:53:22.292Z,0
2019-01-25T05:55:22.297Z,0
2019-01-25T05:56:37.011Z,0
2019-01-25T05:57:22.312Z,0
2019-01-25T05:58:22.321Z,0
2019-01-25T05:59:22.337Z,0
2019-01-25T06:00:22.342Z,0
2019-01-25T06:01:22.360Z,0
2019-01-25T06:02:22.364Z,0
2019-01-25T06:03:22.389Z,0
2019-01-25T06:04:37.046Z,0
2019-01-25T06:05:22.413Z,0
2019-01-25T06:06:22.402Z,0
2019-01-25T06:07:37.074Z,0
2019-01-25T06:08:22.177Z,0
2019-01-25T06:09:22.436Z,0
2019-01-25T06:10:22.450Z,0
2019-01-25T06:11:22.208Z,0
2019-01-25T06:12:37.126Z,0
2019-01-25T06:14:22.483Z,0
2019-01-25T06:16:22.275Z,0
2019-01-25T06:17:22.521Z,0
2019-01-25T06:18:22.532Z,0
2019-01-25T06:19:37.320Z,0
2019-01-25T06:20:37.208Z,0
2019-01-25T06:21:22.570Z,0
2019-01-25T06:22:22.566Z,0
2019-01-25T06:23:22.571Z,0
2019-01-25T06:25:22.623Z,0
2019-01-25T06:26:22.608Z,0
2019-01-25T06:27:22.614Z,0
2019-01-25T06:28:37.284Z,0
2019-01-25T06:29:22.711Z,0
2019-01-25T06:30:38.690Z,0
2019-01-25T06:31:22.655Z,0
2019-01-25T06:33:22.697Z,0
2019-01-25T06:34:22.439Z,0
2019-01-25T06:35:22.706Z,0
2019-01-25T06:36:22.711Z,0
2019-01-25T06:37:22.772Z,0
2019-01-25T06:38:22.725Z,0
2019-01-25T06:40:22.745Z,4
2019-01-25T06:43:37.444Z,4
2019-01-25T06:44:22.840Z,4
2019-01-25T06:45:22.868Z,4
2019-01-25T06:47:22.813Z,4
2019-01-25T06:48:37.495Z,8
2019-01-25T06:49:22.839Z,8
2019-01-25T06:50:37.513Z,8
2019-01-25T06:51:22.855Z,8
2019-01-25T06:52:22.869Z,8
2019-01-25T06:53:22.890Z,8
2019-01-25T06:54:22.889Z,12
2019-01-25T06:55:22.894Z,12
2019-01-25T06:56:22.905Z,12
2019-01-25T06:57:22.914Z,16
2019-01-25T06:58:22.935Z,12
2019-01-25T06:59:22.943Z,16
2019-01-25T07:00:22.949Z,16
2019-01-25T07:01:22.958Z,16
2019-01-25T07:02:22.968Z,16
2019-01-25T07:03:22.976Z,20
2019-01-25T07:05:22.999Z,24
2019-01-25T07:06:23.112Z,24
2019-01-25T07:07:23.014Z,28
2019-01-25T07:08:23.025Z,28
2019-01-25T07:09:23.038Z,32
2019-01-25T07:10:23.051Z,36
2019-01-25T07:11:23.055Z,40
2019-01-25T07:12:23.171Z,40
2019-01-25T07:13:23.183Z,44
2019-01-25T07:14:23.139Z,48
2019-01-25T07:15:37.760Z,48
2019-01-25T07:16:23.123Z,52
2019-01-25T07:17:23.122Z,52
2019-01-25T07:18:23.132Z,56
2019-01-25T07:19:23.135Z,56
2019-01-25T07:20:23.154Z,64
2019-01-25T07:21:23.384Z,68
2019-01-25T07:22:23.166Z,80
2019-01-25T07:23:23.227Z,80
2019-01-25T07:25:23.195Z,96
2019-01-25T07:26:37.867Z,104
2019-01-25T07:27:37.877Z,108
2019-01-25T07:28:37.894Z,108
2019-01-25T07:29:23.270Z,108
2019-01-25T07:30:38.164Z,112
2019-01-25T07:31:38.370Z,112
2019-01-25T07:32:23.292Z,112
2019-01-25T07:33:23.743Z,120
2019-01-25T07:34:23.331Z,132
2019-01-25T07:35:23.363Z,148
2019-01-25T07:36:23.370Z,164
2019-01-25T07:37:23.390Z,172
2019-01-25T07:38:23.370Z,176
2019-01-25T07:39:38.101Z,168
2019-01-25T07:40:23.421Z,172
2019-01-25T07:42:23.442Z,184
2019-01-25T07:43:23.606Z,196
2019-01-25T07:44:23.404Z,208
2019-01-25T07:45:23.478Z,216
2019-01-25T07:46:38.085Z,228
2019-01-25T07:47:38.181Z,232
2019-01-25T07:49:23.509Z,236
2019-01-25T07:50:23.498Z,240
2019-01-25T07:51:23.499Z,252
2019-01-25T07:52:23.240Z,264
2019-01-25T07:53:24.705Z,276
2019-01-25T07:54:23.553Z,288
2019-01-25T07:55:23.753Z,296
2019-01-25T07:56:23.400Z,296
2019-01-25T07:57:23.589Z,308
2019-01-25T07:58:23.603Z,320
2019-01-25T08:00:23.612Z,344
2019-01-25T08:01:23.744Z,356
2019-01-25T08:02:23.671Z,372
2019-01-25T08:03:38.252Z,400
2019-01-25T08:04:38.256Z,424
2019-01-25T08:05:23.633Z,444
2019-01-25T08:06:23.767Z,472
2019-01-25T08:07:23.790Z,484
2019-01-25T08:08:23.692Z,484
2019-01-25T08:09:23.705Z,492
2019-01-25T08:10:23.698Z,504
2019-01-25T08:11:23.706Z,536
2019-01-25T08:12:24.202Z,564
2019-01-25T08:13:38.342Z,592
2019-01-25T08:14:23.712Z,596
2019-01-25T08:15:23.936Z,608
2019-01-25T08:16:23.759Z,628
2019-01-25T08:17:23.916Z,648
2019-01-25T08:18:38.423Z,660
2019-01-25T08:19:23.849Z,668
2019-01-25T08:20:23.958Z,668
2019-01-25T08:21:24.078Z,668
2019-01-25T08:23:38.449Z,660
2019-01-25T08:24:23.901Z,652
2019-01-25T08:25:23.911Z,648
2019-01-25T08:26:24.156Z,648
2019-01-25T08:27:24.026Z,656
2019-01-25T08:28:24.041Z,664
2019-01-25T08:29:30.595Z,680
2019-01-25T08:30:24.130Z,684
2019-01-25T08:31:23.965Z,700
2019-01-25T08:32:24.123Z,712
2019-01-25T08:33:24.440Z,724
2019-01-25T08:34:23.975Z,728
2019-01-25T08:36:23.928Z,736
2019-01-25T08:38:24.003Z,744
2019-01-25T08:39:24.024Z,752
2019-01-25T08:40:38.738Z,768
2019-01-25T08:41:23.976Z,776
2019-01-25T08:42:24.008Z,788
2019-01-25T08:43:23.979Z,800
2019-01-25T08:44:24.042Z,816
2019-01-25T08:45:38.866Z,816
2019-01-25T08:46:24.092Z,800
2019-01-25T08:47:24.091Z,800
2019-01-25T08:48:23.866Z,816
2019-01-25T08:49:24.103Z,840
2019-01-25T08:50:39.098Z,880
2019-01-25T08:51:24.210Z,896
2019-01-25T08:52:24.235Z,908
2019-01-25T08:53:24.130Z,920
2019-01-25T08:54:24.412Z,932
2019-01-25T08:55:26.180Z,936
2019-01-25T08:56:38.815Z,940
2019-01-25T08:57:24.220Z,932
2019-01-25T08:58:24.220Z,920
2019-01-25T08:59:24.394Z,900
2019-01-25T09:00:24.155Z,868
2019-01-25T09:02:24.172Z,800
2019-01-25T09:03:24.181Z,764
2019-01-25T09:04:24.185Z,748
2019-01-25T09:05:24.206Z,728
2019-01-25T09:06:38.883Z,696
2019-01-25T09:07:24.219Z,676
2019-01-25T09:08:24.314Z,640
2019-01-25T09:09:23.993Z,612
2019-01-25T09:10:24.369Z,596
2019-01-25T09:11:24.264Z,588
2019-01-25T09:13:24.284Z,604
2019-01-25T09:14:24.351Z,628
2019-01-25T09:16:38.969Z,744
2019-01-25T09:17:24.318Z,804
2019-01-25T09:18:24.377Z,904
2019-01-25T09:19:39.003Z,1016
2019-01-25T09:20:24.351Z,1072
2019-01-25T09:21:24.170Z,1120
2019-01-25T09:22:39.031Z,1136
2019-01-25T09:23:24.144Z,1140
2019-01-25T09:24:39.057Z,1140
2019-01-25T09:25:24.398Z,1152
2019-01-25T09:26:24.412Z,1168
2019-01-25T09:27:24.422Z,1180
2019-01-25T09:28:24.479Z,1172
2019-01-25T09:29:39.103Z,1144
2019-01-25T09:30:24.446Z,1128
2019-01-25T09:31:24.462Z,1116
2019-01-25T09:32:24.521Z,1112
2019-01-25T09:33:24.482Z,1104
2019-01-25T09:36:24.517Z,1092
2019-01-25T09:37:24.567Z,1104
2019-01-25T09:38:53.865Z,1124
2019-01-25T09:40:24.554Z,1168
2019-01-25T09:41:24.567Z,1228
2019-01-25T09:42:30.948Z,1316
2019-01-25T09:43:24.584Z,1440
2019-01-25T09:44:39.257Z,1648
2019-01-25T09:45:24.603Z,1808
2019-01-25T09:46:24.659Z,2072
2019-01-25T09:47:24.625Z,2416
2019-01-25T09:48:24.637Z,2828
2019-01-25T09:49:39.304Z,3424
2019-01-25T09:50:24.654Z,3872
2019-01-25T09:51:39.338Z,4488
2019-01-25T09:52:24.674Z,4736
2019-01-25T09:53:39.347Z,4868
2019-01-25T09:54:24.757Z,4756
2019-01-25T09:55:27.040Z,4552
2019-01-25T09:56:24.730Z,4364
2019-01-25T09:57:24.729Z,3956
2019-01-25T09:58:24.752Z,3640
2019-01-25T09:59:24.749Z,3320
2019-01-25T10:00:24.769Z,3048
2019-01-25T10:01:24.772Z,2872
2019-01-25T10:02:24.781Z,2832
2019-01-25T10:03:39.451Z,2876
2019-01-25T10:04:39.460Z,2804
2019-01-25T10:05:24.813Z,2700
2019-01-25T10:06:24.847Z,2588
2019-01-25T10:07:24.836Z,2532
2019-01-25T10:08:24.890Z,2512
2019-01-25T10:09:24.857Z,2488
2019-01-25T10:10:26.113Z,2416
2019-01-25T10:11:24.882Z,2360
2019-01-25T10:12:24.889Z,2336
2019-01-25T10:13:24.903Z,2360
2019-01-25T10:14:24.926Z,2412
2019-01-25T10:15:26.472Z,2460
2019-01-25T10:16:24.944Z,2480
2019-01-25T10:17:39.599Z,2416
2019-01-25T10:18:29.541Z,2352
2019-01-25T10:19:24.962Z,2296
2019-01-25T10:20:39.643Z,2236
2019-01-25T10:21:39.697Z,2168
2019-01-25T10:22:39.651Z,2116
2019-01-25T10:23:41.608Z,2056
2019-01-25T10:25:39.684Z,1904
2019-01-25T10:26:25.091Z,1872
2019-01-25T10:27:25.052Z,1848
2019-01-25T10:28:25.053Z,1824
2019-01-25T10:29:25.073Z,1816
2019-01-25T10:30:25.070Z,1816
2019-01-25T10:31:25.256Z,1820
2019-01-25T10:32:25.094Z,1792
2019-01-25T10:33:25.102Z,1760
2019-01-25T10:35:24.875Z,1756
2019-01-25T10:36:25.141Z,1772
2019-01-25T10:37:25.147Z,1772
2019-01-25T10:38:25.156Z,1704
2019-01-25T10:39:39.828Z,1588
2019-01-25T10:40:25.177Z,1528
2019-01-25T10:41:39.863Z,1476
2019-01-25T10:43:25.208Z,1432
2019-01-25T10:44:25.226Z,1432
2019-01-25T10:45:25.229Z,1476
2019-01-25T10:46:25.241Z,1532
2019-01-25T10:47:25.315Z,1592
2019-01-25T10:48:25.272Z,1584
2019-01-25T10:49:25.272Z,1552
2019-01-25T10:50:39.942Z,1516
2019-01-25T10:51:25.293Z,1448
2019-01-25T10:52:25.305Z,1396
2019-01-25T10:53:25.317Z,1404
2019-01-25T10:54:39.982Z,1508
2019-01-25T10:55:25.341Z,1608
2019-01-25T10:56:25.346Z,1788
2019-01-25T10:57:40.014Z,2124
2019-01-25T10:58:25.914Z,2280
2019-01-25T10:59:25.431Z,2432
2019-01-25T11:00:25.387Z,2464
2019-01-25T11:01:25.394Z,2448
2019-01-25T11:02:25.406Z,2416
2019-01-25T11:03:25.432Z,2412
2019-01-25T11:04:25.438Z,2456
2019-01-25T11:05:25.438Z,2468
2019-01-25T11:06:25.451Z,2532
2019-01-25T11:07:40.120Z,2668
2019-01-25T11:08:25.477Z,2744
2019-01-25T11:09:25.694Z,2828
2019-01-25T11:10:40.153Z,2856
2019-01-25T11:12:40.173Z,2924
2019-01-25T11:13:40.185Z,2908
2019-01-25T11:14:25.551Z,2992
2019-01-25T11:15:25.545Z,3040
2019-01-25T11:16:25.564Z,2900
2019-01-25T11:17:25.566Z,2768
2019-01-25T11:18:25.580Z,2760
2019-01-25T11:19:25.585Z,2812
2019-01-25T11:20:40.262Z,3108
2019-01-25T11:21:25.612Z,3372
2019-01-25T11:22:40.282Z,3588
2019-01-25T11:23:25.681Z,3540
2019-01-25T11:24:25.639Z,3476
2019-01-25T11:25:25.662Z,3564
2019-01-25T11:26:40.325Z,3868
2019-01-25T11:27:25.674Z,3920
2019-01-25T11:28:40.413Z,3864
2019-01-25T11:29:25.752Z,3912
2019-01-25T11:30:25.723Z,3876
2019-01-25T11:31:25.728Z,3868
2019-01-25T11:32:25.730Z,3928
2019-01-25T11:33:25.760Z,3996
2019-01-25T11:34:40.434Z,3976
2019-01-25T11:35:25.763Z,3964
2019-01-25T11:36:25.779Z,3548
2019-01-25T11:37:25.785Z,3448
2019-01-25T11:38:25.797Z,3472
2019-01-25T11:39:40.472Z,3708
2019-01-25T11:40:25.832Z,3936
2019-01-25T11:41:25.829Z,4100
2019-01-25T11:42:25.889Z,4124
2019-01-25T11:43:25.852Z,4104
2019-01-25T11:44:25.872Z,4104
2019-01-25T11:45:25.876Z,3980
2019-01-25T11:46:25.893Z,3956
2019-01-25T11:47:25.657Z,4188
2019-01-25T11:48:25.908Z,4712
2019-01-25T11:50:25.944Z,5508
2019-01-25T11:51:27.091Z,5680
2019-01-25T11:52:29.926Z,5720
2019-01-25T11:53:25.984Z,5748
2019-01-25T11:54:40.636Z,5692
2019-01-25T11:55:26.052Z,5580
2019-01-25T11:56:25.995Z,5500
2019-01-25T11:57:40.671Z,5360
2019-01-25T11:58:26.020Z,5376
2019-01-25T12:00:40.703Z,5624
2019-01-25T12:01:26.055Z,5680
2019-01-25T12:02:28.181Z,5788
2019-01-25T12:03:26.083Z,5880
2019-01-25T12:04:26.090Z,5880
2019-01-25T12:05:26.099Z,5904
2019-01-25T12:06:26.275Z,6128
2019-01-25T12:07:26.125Z,6260
2019-01-25T12:08:26.136Z,6340
2019-01-25T12:09:26.189Z,6348
2019-01-25T12:10:26.158Z,6240
2019-01-25T12:11:26.166Z,6136
2019-01-25T12:12:26.586Z,6028
2019-01-25T12:14:26.215Z,5868
2019-01-25T12:15:26.269Z,5752
2019-01-25T12:16:40.887Z,5888
2019-01-25T12:17:26.241Z,5920
2019-01-25T12:18:26.488Z,5744
2019-01-25T12:19:26.311Z,5608
2019-01-25T12:20:26.276Z,5448
2019-01-25T12:21:27.882Z,5332
2019-01-25T12:22:26.430Z,5220
2019-01-25T12:23:26.307Z,5000
2019-01-25T12:24:26.462Z,4712
2019-01-25T12:25:40.994Z,4640
2019-01-25T12:26:26.339Z,4384
2019-01-25T12:27:26.364Z,4068
2019-01-25T12:28:41.027Z,3908
2019-01-25T12:29:26.566Z,3956
2019-01-25T12:30:26.440Z,4148
2019-01-25T12:31:26.405Z,4216
2019-01-25T12:32:41.072Z,4104
2019-01-25T12:33:26.433Z,3984
2019-01-25T12:34:26.436Z,3804
2019-01-25T12:35:26.555Z,3640
2019-01-25T12:36:26.509Z,3616
2019-01-25T12:37:41.136Z,3672
2019-01-25T12:38:41.145Z,3676
2019-01-25T12:39:26.494Z,3672
2019-01-25T12:40:26.505Z,3688
2019-01-25T12:41:26.518Z,3588
2019-01-25T12:42:26.526Z,3488
2019-01-25T12:43:31.298Z,3484
2019-01-25T12:44:41.209Z,3424
2019-01-25T12:45:26.561Z,3316
2019-01-25T12:46:26.615Z,3316
2019-01-25T12:47:26.583Z,3288
2019-01-25T12:48:41.260Z,3168
2019-01-25T12:49:26.611Z,3100
2019-01-25T12:50:26.674Z,3028
2019-01-25T12:51:41.298Z,2952
2019-01-25T12:52:41.308Z,2952
2019-01-25T12:53:26.692Z,2936
2019-01-25T12:54:41.421Z,2888
2019-01-25T12:55:26.676Z,2780
2019-01-25T12:56:26.705Z,2668
2019-01-25T12:57:41.359Z,2652
2019-01-25T12:58:26.709Z,2680
2019-01-25T12:59:26.742Z,2716
2019-01-25T13:00:26.791Z,2764
2019-01-25T13:01:26.759Z,2696
2019-01-25T13:02:26.758Z,2572
2019-01-25T13:03:41.434Z,2472
2019-01-25T13:04:26.835Z,2452
2019-01-25T13:05:41.457Z,2360
2019-01-25T13:06:27.397Z,2320
2019-01-25T13:07:26.816Z,2276
2019-01-25T13:08:26.824Z,2228
2019-01-25T13:09:26.833Z,2112
2019-01-25T13:11:26.855Z,1992
2019-01-25T13:12:30.009Z,1956
2019-01-25T13:13:41.603Z,1936
2019-01-25T13:14:26.890Z,1900
2019-01-25T13:15:27.008Z,1884
2019-01-25T13:16:26.909Z,1908
2019-01-25T13:17:41.643Z,2000
2019-01-25T13:18:26.934Z,2072
2019-01-25T13:19:26.948Z,2092
2019-01-25T13:20:26.956Z,1988
2019-01-25T13:21:26.995Z,1880
2019-01-25T13:22:26.981Z,1852
2019-01-25T13:23:26.993Z,1892
2019-01-25T13:24:27.009Z,1924
2019-01-25T13:25:26.935Z,1952
2019-01-25T13:26:26.877Z,2024
2019-01-25T13:27:27.033Z,2144
2019-01-25T13:28:27.361Z,2248
2019-01-25T13:29:33.610Z,2296
2019-01-25T13:30:27.078Z,2332
2019-01-25T13:31:41.880Z,2536
2019-01-25T13:32:27.153Z,2764
2019-01-25T13:33:27.115Z,2900
2019-01-25T13:34:27.190Z,2988
2019-01-25T13:35:41.898Z,3036
2019-01-25T13:36:27.163Z,3080
2019-01-25T13:37:31.242Z,3084
2019-01-25T13:38:41.870Z,3056
2019-01-25T13:39:27.173Z,3104
2019-01-25T13:40:26.949Z,3232
2019-01-25T13:41:32.134Z,3328
2019-01-25T13:42:27.202Z,3312
2019-01-25T13:43:27.010Z,3208
2019-01-25T13:44:30.168Z,3152
2019-01-25T13:46:27.247Z,2856
2019-01-25T13:47:27.256Z,2744
2019-01-25T13:48:42.081Z,2732
2019-01-25T13:49:27.329Z,2740
2019-01-25T13:50:27.307Z,2728
2019-01-25T13:51:41.716Z,2708
2019-01-25T13:52:27.325Z,2680
2019-01-25T13:53:27.324Z,2472
2019-01-25T13:54:31.257Z,2256
2019-01-25T13:55:27.360Z,2212
2019-01-25T13:56:27.368Z,2356
2019-01-25T13:57:27.381Z,2416
2019-01-25T13:58:27.383Z,2392
2019-01-25T13:59:27.410Z,2368
2019-01-25T14:00:27.836Z,2324
2019-01-25T14:01:43.597Z,2324
2019-01-25T14:02:27.429Z,2320
2019-01-25T14:05:27.461Z,2208
2019-01-25T14:07:42.142Z,2132
2019-01-25T14:08:27.494Z,2132
2019-01-25T14:09:27.550Z,2132
2019-01-25T14:10:27.516Z,2088
2019-01-25T14:11:27.526Z,2016
2019-01-25T14:12:27.537Z,1968
2019-01-25T14:13:27.652Z,1936
2019-01-25T14:14:27.562Z,1892
2019-01-25T14:15:27.573Z,1848
2019-01-25T14:17:27.649Z,1792
2019-01-25T14:18:27.611Z,1740
2019-01-25T14:19:42.277Z,1688
2019-01-25T14:20:30.644Z,1656
2019-01-25T14:21:27.639Z,1620
2019-01-25T14:22:27.653Z,1568
2019-01-25T14:23:56.989Z,1524
2019-01-25T14:24:27.674Z,1524
2019-01-25T14:25:27.686Z,1544
2019-01-25T14:26:27.695Z,1556
2019-01-25T14:27:27.712Z,1560
2019-01-25T14:28:27.724Z,1556
2019-01-25T14:29:31.685Z,1532
2019-01-25T14:30:27.744Z,1500
2019-01-25T14:31:27.794Z,1400
2019-01-25T14:32:27.762Z,1296
2019-01-25T14:35:27.804Z,1064
2019-01-25T14:36:42.466Z,980
2019-01-25T14:37:27.822Z,996
2019-01-25T14:38:42.493Z,992
2019-01-25T14:39:27.841Z,980
2019-01-25T14:40:42.955Z,964
2019-01-25T14:42:27.873Z,884
2019-01-25T14:43:27.898Z,888
2019-01-25T14:44:27.900Z,912
2019-01-25T14:45:27.912Z,892
2019-01-25T14:46:27.924Z,832
2019-01-25T14:48:27.942Z,828
2019-01-25T14:49:28.955Z,828
2019-01-25T14:51:27.982Z,812
2019-01-25T14:52:27.983Z,780
2019-01-25T14:53:27.993Z,708
2019-01-25T14:54:28.019Z,636
2019-01-25T14:55:28.018Z,560
2019-01-25T14:56:28.028Z,496
2019-01-25T14:57:28.039Z,436
2019-01-25T14:58:28.057Z,396
2019-01-25T14:59:28.064Z,364
2019-01-25T15:00:27.926Z,340
2019-01-25T15:01:28.083Z,328
2019-01-25T15:02:28.092Z,332
2019-01-25T15:03:28.104Z,328
2019-01-25T15:04:28.115Z,312
2019-01-25T15:05:28.143Z,296
2019-01-25T15:06:27.896Z,272
2019-01-25T15:07:28.146Z,244